Currie, MN (56123)

11:48 AM CDT on May 23, 2015 (GMT -0500)
Sorenson Seed | | Change Station
CLOSE
Current Station
Personal Weather Station
Location: Storden, MN
Elevation: 1404 ft
Nearby Weather Stations

Elev 1404 ft 44.04 °N, 95.33 °W | Updated 3 minutes ago

Overcast
Overcast
64.2 °F
Feels Like 64.2 °F
N
15.0
Wind Variable Wind from SE
Gusts 18.0 mph

Today
High -- | Low -- °F
--% Chance of Precip.
Yesterday
High -- | Low -- °F
Precip. -- in
5:48 AM 8:49 PM
Waxing Crescent, 31% visible
Pressure 30.23 in
Visibility 10.0 miles
Clouds Scattered Clouds 5000 ft
Mostly Cloudy 7000 ft
Overcast 8500 ft
Dew Point 46 °F
Humidity 52%
Rainfall 0.00 in
Snow Depth Not available.
UV 3 out of 12
Pollen 6.50 out of 12
Air Quality Not available.
Flu Activity Sporadic
METAR KTKC 231632Z AUTO 09008KT 10SM SCT050 BKN070 OVC085 15/12 A3023 RMK AO2 P0001 T01540120

More Conditions Fewer Conditions

Pressure 30.23 in
Visibility 10.0 miles
Clouds Scattered Clouds 5000 ft
Mostly Cloudy 7000 ft
Overcast 8500 ft
Dew Point 46 °F
Humidity 52%
Rainfall 0.00 in
Snow Depth Not available.
UV 3 out of 12
Pollen 6.50 out of 12
Air Quality Not available.
Flu Activity Sporadic
METAR KTKC 231632Z AUTO 09008KT 10SM SCT050 BKN070 OVC085 15/12 A3023 RMK AO2 P0001 T01540120

More Conditions Fewer Conditions

10-Day Weather Forecast

Almanac

Astronomy

May. 23, 2015 Rise Set
Actual Time
Civil Twilight
Nautical Twilight
Astronomical Twilight
Moon
Length of Visible Light
Length of Day
Tomorrow will be .
, % of the Moon is Illuminated

Today's Extremes

State Highs State Lows

Community

WunderPhotos

Upload Photos

1,823,516 photos uploaded!

WunderBlogs® & News

Nearby

Air Quality

  Air Quality AQ Index Pollutant
Not available.

Snow Depth

Station Depth Elevation

Earthquake Activity

City Distance Mag. Time & Date
Minimum magnitude displayed is 2.5.

Coastal Water Temperatures

Place Temperature

Stations

Nearby Weather Stations

Station Location Temp. Windchill Dew Point Humidity Wind Precip. Elev Updated Type